createdAt,value
2017-06-29T00:00:26.663Z,0
2017-06-29T00:03:11.371Z,0
2017-06-29T00:04:26.816Z,0
2017-06-29T00:05:42.225Z,0
2017-06-29T00:06:57.813Z,0
2017-06-29T00:08:12.157Z,0
2017-06-29T00:09:27.538Z,0
2017-06-29T00:10:43.054Z,0
2017-06-29T00:11:58.487Z,0
2017-06-29T00:13:14.197Z,0
2017-06-29T00:14:29.658Z,0
2017-06-29T00:15:45.082Z,0
2017-06-29T00:17:00.539Z,0
2017-06-29T00:18:16.254Z,0
2017-06-29T00:19:31.740Z,0
2017-06-29T00:20:47.258Z,0
2017-06-29T00:22:02.794Z,0
2017-06-29T00:23:18.441Z,0
2017-06-29T00:24:32.805Z,0
2017-06-29T00:25:48.399Z,0
2017-06-29T00:27:03.823Z,0
2017-06-29T00:28:19.577Z,0
2017-06-29T00:29:34.916Z,0
2017-06-29T00:30:50.385Z,0
2017-06-29T00:32:05.792Z,0
2017-06-29T00:33:21.521Z,0
2017-06-29T00:34:36.987Z,0
2017-06-29T00:35:52.488Z,0
2017-06-29T00:37:07.968Z,0
2017-06-29T00:38:23.643Z,0
2017-06-29T00:39:39.298Z,0
2017-06-29T00:40:54.767Z,0
2017-06-29T00:42:10.190Z,0
2017-06-29T00:43:25.881Z,0
2017-06-29T00:44:41.334Z,0
2017-06-29T00:45:56.801Z,0
2017-06-29T00:47:12.253Z,0
2017-06-29T00:48:28.000Z,0
2017-06-29T00:49:43.457Z,0
2017-06-29T00:50:58.889Z,0
2017-06-29T00:52:14.311Z,0
2017-06-29T00:53:30.007Z,0
2017-06-29T00:54:45.367Z,0
2017-06-29T00:56:00.786Z,0
2017-06-29T00:57:16.426Z,0
2017-06-29T00:58:32.133Z,0
2017-06-29T00:59:47.704Z,0
2017-06-29T01:01:03.133Z,0
2017-06-29T01:02:18.723Z,0
2017-06-29T01:03:34.386Z,0
2017-06-29T01:04:49.435Z,0
2017-06-29T01:06:04.889Z,0
2017-06-29T01:07:20.663Z,0
2017-06-29T01:08:36.366Z,0
2017-06-29T01:09:50.494Z,0
2017-06-29T01:11:05.938Z,0
2017-06-29T01:12:21.428Z,0
2017-06-29T01:13:37.085Z,0
2017-06-29T01:14:51.084Z,0
2017-06-29T01:16:06.555Z,0
2017-06-29T01:17:21.994Z,0
2017-06-29T01:18:37.882Z,0
2017-06-29T01:19:51.650Z,0
2017-06-29T01:21:07.102Z,0
2017-06-29T01:22:22.475Z,0
2017-06-29T01:23:38.345Z,0
2017-06-29T01:24:53.846Z,0
2017-06-29T01:26:09.286Z,0
2017-06-29T01:27:24.720Z,0
2017-06-29T01:28:39.088Z,0
2017-06-29T01:29:54.515Z,0
2017-06-29T01:31:09.583Z,0
2017-06-29T01:32:25.034Z,0
2017-06-29T01:33:40.688Z,0
2017-06-29T01:34:56.160Z,0
2017-06-29T01:36:11.715Z,0
2017-06-29T01:37:25.800Z,0
2017-06-29T01:38:41.505Z,0
2017-06-29T01:39:57.023Z,0
2017-06-29T01:41:12.432Z,0
2017-06-29T01:42:27.835Z,0
2017-06-29T01:43:43.533Z,0
2017-06-29T01:44:58.993Z,0
2017-06-29T01:46:14.513Z,0
2017-06-29T01:47:29.930Z,0
2017-06-29T01:48:45.600Z,0
2017-06-29T01:50:01.034Z,0
2017-06-29T01:51:16.500Z,0
2017-06-29T01:52:31.957Z,0
2017-06-29T01:53:47.659Z,0
2017-06-29T01:55:03.135Z,0
2017-06-29T01:56:18.595Z,0
2017-06-29T01:57:32.714Z,0
2017-06-29T01:58:48.678Z,0
2017-06-29T02:00:04.201Z,0
2017-06-29T02:01:19.644Z,0
2017-06-29T02:02:35.264Z,0
2017-06-29T02:03:50.962Z,0
2017-06-29T02:05:06.544Z,0
2017-06-29T02:06:21.929Z,0
2017-06-29T02:07:37.533Z,0
2017-06-29T02:08:53.463Z,0
2017-06-29T02:10:08.877Z,0
2017-06-29T02:11:24.337Z,0
2017-06-29T02:12:38.438Z,0
2017-06-29T02:13:51.218Z,0
2017-06-29T02:15:06.646Z,0
2017-06-29T02:16:22.046Z,0
2017-06-29T02:17:37.454Z,0
2017-06-29T02:18:53.167Z,0
2017-06-29T02:20:08.627Z,0
2017-06-29T02:21:23.989Z,0
2017-06-29T02:22:38.192Z,0
2017-06-29T02:23:53.867Z,0
2017-06-29T02:25:09.305Z,0
2017-06-29T02:26:24.741Z,0
2017-06-29T02:27:40.262Z,0
2017-06-29T02:28:56.030Z,0
2017-06-29T02:30:11.471Z,0
2017-06-29T02:31:26.879Z,0
2017-06-29T02:32:42.331Z,0
2017-06-29T02:33:56.556Z,0
2017-06-29T02:35:12.150Z,0
2017-06-29T02:36:27.618Z,0
2017-06-29T02:37:43.064Z,0
2017-06-29T02:38:58.827Z,0
2017-06-29T02:40:14.290Z,0
2017-06-29T02:41:29.719Z,0
2017-06-29T02:42:43.846Z,0
2017-06-29T02:43:58.352Z,0
2017-06-29T02:45:13.785Z,0
2017-06-29T02:46:29.234Z,0
2017-06-29T02:47:44.630Z,0
2017-06-29T02:49:00.338Z,0
2017-06-29T02:50:14.367Z,5
2017-06-29T02:51:29.839Z,5
2017-06-29T02:52:45.484Z,5
2017-06-29T02:53:59.893Z,5
2017-06-29T02:55:13.916Z,5
2017-06-29T02:56:29.393Z,5
2017-06-29T02:57:44.931Z,5
2017-06-29T02:59:00.571Z,5
2017-06-29T03:00:16.207Z,10
2017-06-29T03:01:30.330Z,10
2017-06-29T03:02:45.758Z,10
2017-06-29T03:04:01.434Z,10
2017-06-29T03:05:15.200Z,10
2017-06-29T03:06:42.914Z,15
2017-06-29T03:07:58.351Z,15
2017-06-29T03:09:14.122Z,15
2017-06-29T03:10:26.810Z,15
2017-06-29T03:11:42.355Z,15
2017-06-29T03:12:57.787Z,20
2017-06-29T03:14:10.873Z,20
2017-06-29T03:15:26.348Z,20
2017-06-29T03:16:41.810Z,25
2017-06-29T03:17:57.266Z,25
2017-06-29T03:19:12.722Z,25
2017-06-29T03:20:28.138Z,25
2017-06-29T03:21:43.539Z,30
2017-06-29T03:22:58.992Z,30
2017-06-29T03:24:14.703Z,30
2017-06-29T03:25:30.150Z,35
2017-06-29T03:26:45.597Z,35
2017-06-29T03:28:01.005Z,40
2017-06-29T03:29:15.385Z,40
2017-06-29T03:30:30.827Z,40
2017-06-29T03:31:46.261Z,45
2017-06-29T03:33:01.699Z,45
2017-06-29T03:34:17.417Z,45
2017-06-29T03:35:32.953Z,50
2017-06-29T03:36:48.376Z,50
2017-06-29T03:38:02.695Z,55
2017-06-29T03:39:18.404Z,55
2017-06-29T03:40:33.835Z,55
2017-06-29T03:41:49.440Z,60
2017-06-29T03:43:03.568Z,60
2017-06-29T03:44:18.852Z,65
2017-06-29T03:45:34.255Z,65
2017-06-29T03:46:49.710Z,65
2017-06-29T03:48:03.810Z,65
2017-06-29T03:49:19.496Z,65
2017-06-29T03:50:34.953Z,70
2017-06-29T03:51:50.349Z,70
2017-06-29T03:53:04.489Z,75
2017-06-29T03:54:20.394Z,75
2017-06-29T03:55:35.961Z,75
2017-06-29T03:56:51.485Z,75
2017-06-29T03:58:06.927Z,80
2017-06-29T03:59:22.633Z,80
2017-06-29T04:00:36.791Z,80
2017-06-29T04:01:52.190Z,85
2017-06-29T04:03:07.650Z,85
2017-06-29T04:04:23.378Z,90
2017-06-29T04:05:38.841Z,95
2017-06-29T04:06:54.323Z,95
2017-06-29T04:08:09.782Z,100
2017-06-29T04:09:25.526Z,100
2017-06-29T04:10:41.179Z,105
2017-06-29T04:11:56.640Z,110
2017-06-29T04:13:12.241Z,110
2017-06-29T04:14:27.947Z,115
2017-06-29T04:15:43.383Z,115
2017-06-29T04:16:58.469Z,120
2017-06-29T04:18:13.947Z,120
2017-06-29T04:19:29.686Z,125
2017-06-29T04:20:45.141Z,125
2017-06-29T04:22:00.571Z,130
2017-06-29T04:23:15.620Z,130
2017-06-29T04:24:29.999Z,130
2017-06-29T04:25:45.424Z,135
2017-06-29T04:27:00.868Z,135
2017-06-29T04:28:16.380Z,140
2017-06-29T04:29:32.082Z,140
2017-06-29T04:30:46.154Z,145
2017-06-29T04:32:01.647Z,150
2017-06-29T04:33:15.781Z,160
2017-06-29T04:34:31.428Z,165
2017-06-29T04:35:47.038Z,170
2017-06-29T04:37:02.501Z,175
2017-06-29T04:38:18.162Z,175
2017-06-29T04:39:33.700Z,185
2017-06-29T04:40:48.935Z,190
2017-06-29T04:42:04.418Z,195
2017-06-29T04:43:19.847Z,205
2017-06-29T04:44:35.630Z,210
2017-06-29T04:45:51.107Z,220
2017-06-29T04:47:06.543Z,225
2017-06-29T04:48:21.946Z,230
2017-06-29T04:49:37.651Z,230
2017-06-29T04:50:53.068Z,230
2017-06-29T04:52:08.481Z,235
2017-06-29T04:53:22.518Z,235
2017-06-29T04:54:38.397Z,235
2017-06-29T04:56:23.368Z,235
2017-06-29T04:57:38.789Z,240
2017-06-29T04:58:52.909Z,245
2017-06-29T05:00:22.256Z,250
2017-06-29T05:01:37.660Z,250
2017-06-29T05:02:53.104Z,265
2017-06-29T05:04:08.671Z,265
2017-06-29T05:05:24.504Z,270
2017-06-29T05:06:39.935Z,270
2017-06-29T05:07:55.334Z,275
2017-06-29T05:09:10.757Z,270
2017-06-29T05:10:25.137Z,275
2017-06-29T05:11:40.513Z,280
2017-06-29T05:12:55.967Z,285
2017-06-29T05:14:11.069Z,285
2017-06-29T05:15:26.723Z,295
2017-06-29T05:16:40.875Z,305
2017-06-29T05:17:56.444Z,315
2017-06-29T05:19:11.962Z,330
2017-06-29T05:20:27.572Z,335
2017-06-29T05:21:42.657Z,335
2017-06-29T05:22:58.370Z,330
2017-06-29T05:24:13.810Z,310
2017-06-29T05:25:28.064Z,315
2017-06-29T05:26:43.481Z,295
2017-06-29T05:27:57.632Z,305
2017-06-29T05:29:13.044Z,305
2017-06-29T05:30:28.931Z,265
2017-06-29T05:31:44.432Z,280
2017-06-29T05:32:59.908Z,290
2017-06-29T05:34:14.044Z,300
2017-06-29T05:35:29.757Z,295
2017-06-29T05:36:45.184Z,315
2017-06-29T05:38:00.632Z,320
2017-06-29T05:39:16.230Z,325
2017-06-29T05:40:31.925Z,330
2017-06-29T05:41:47.342Z,335
2017-06-29T05:43:02.861Z,340
2017-06-29T05:44:17.007Z,325
2017-06-29T05:45:32.700Z,355
2017-06-29T05:46:46.840Z,365
2017-06-29T05:48:02.222Z,360
2017-06-29T05:49:16.368Z,375
2017-06-29T05:50:32.045Z,380
2017-06-29T05:51:47.527Z,380
2017-06-29T05:53:02.986Z,355
2017-06-29T05:54:18.425Z,350
2017-06-29T05:55:34.117Z,360
2017-06-29T05:56:49.549Z,370
2017-06-29T05:58:03.684Z,355
2017-06-29T05:59:19.148Z,380
2017-06-29T06:00:33.543Z,380
2017-06-29T06:01:49.015Z,385
2017-06-29T06:03:04.433Z,385
2017-06-29T06:04:19.505Z,375
2017-06-29T06:05:33.864Z,370
2017-06-29T06:06:47.991Z,380
2017-06-29T06:08:01.992Z,400
2017-06-29T06:09:17.455Z,400
2017-06-29T06:10:33.366Z,405
2017-06-29T06:11:48.849Z,445
2017-06-29T06:13:04.310Z,455
2017-06-29T06:14:19.778Z,475
2017-06-29T06:15:35.759Z,435
2017-06-29T06:16:51.237Z,425
2017-06-29T06:18:06.689Z,390
2017-06-29T06:19:22.150Z,390
2017-06-29T06:20:36.398Z,440
2017-06-29T06:21:51.846Z,420
2017-06-29T06:23:07.325Z,375
2017-06-29T06:24:22.788Z,400
2017-06-29T06:25:38.448Z,425
2017-06-29T06:26:53.831Z,440
2017-06-29T06:28:08.945Z,460
2017-06-29T06:29:24.391Z,415
2017-06-29T06:30:40.388Z,365
2017-06-29T06:31:55.848Z,410
2017-06-29T06:33:11.303Z,360
2017-06-29T06:34:25.257Z,345
2017-06-29T06:35:41.002Z,310
2017-06-29T06:37:27.343Z,345
2017-06-29T06:38:42.879Z,360
2017-06-29T06:39:58.540Z,350
2017-06-29T06:41:27.675Z,390
2017-06-29T06:42:43.230Z,405
2017-06-29T06:43:58.654Z,505
2017-06-29T06:45:14.164Z,505
2017-06-29T06:46:29.850Z,475
2017-06-29T06:47:44.067Z,470
2017-06-29T06:48:59.554Z,435
2017-06-29T06:50:13.363Z,465
2017-06-29T06:51:27.704Z,525
2017-06-29T06:52:43.134Z,485
2017-06-29T06:53:58.712Z,480
2017-06-29T06:55:12.910Z,565
2017-06-29T06:56:27.340Z,530
2017-06-29T06:57:42.800Z,525
2017-06-29T06:58:58.482Z,535
2017-06-29T07:00:12.482Z,585
2017-06-29T07:01:28.179Z,470
2017-06-29T07:02:42.321Z,470
2017-06-29T07:03:57.760Z,510
2017-06-29T07:05:13.193Z,450
2017-06-29T07:06:28.935Z,565
2017-06-29T07:07:44.378Z,455
2017-06-29T07:08:59.740Z,570
2017-06-29T07:10:13.906Z,550
2017-06-29T07:11:29.629Z,580
2017-06-29T07:12:45.080Z,635
2017-06-29T07:13:59.162Z,565
2017-06-29T07:15:13.310Z,500
2017-06-29T07:16:28.978Z,480
2017-06-29T07:17:44.381Z,535
2017-06-29T07:19:00.031Z,570
2017-06-29T07:20:15.518Z,590
2017-06-29T07:21:31.258Z,570
2017-06-29T07:22:46.733Z,645
2017-06-29T07:24:02.252Z,615
2017-06-29T07:25:16.390Z,610
2017-06-29T07:26:32.104Z,595
2017-06-29T07:27:47.537Z,600
2017-06-29T07:29:02.950Z,575
2017-06-29T07:30:18.053Z,635
2017-06-29T07:31:30.911Z,585
2017-06-29T07:32:46.634Z,670
2017-06-29T07:34:02.087Z,650
2017-06-29T07:35:17.447Z,635
2017-06-29T07:36:32.497Z,660
2017-06-29T07:37:46.680Z,675
2017-06-29T07:39:02.335Z,685
2017-06-29T07:40:17.838Z,685
2017-06-29T07:41:33.293Z,740
2017-06-29T07:42:47.659Z,675
2017-06-29T07:44:03.106Z,690
2017-06-29T07:45:18.537Z,665
2017-06-29T07:46:33.988Z,715
2017-06-29T07:47:49.694Z,720
2017-06-29T07:49:05.397Z,655
2017-06-29T07:50:21.006Z,670
2017-06-29T07:51:36.457Z,685
2017-06-29T07:52:52.106Z,705
2017-06-29T07:54:06.287Z,700
2017-06-29T07:55:21.730Z,655
2017-06-29T07:56:37.158Z,725
2017-06-29T07:57:52.998Z,760
2017-06-29T07:59:08.661Z,725
2017-06-29T08:00:24.074Z,680
2017-06-29T08:01:39.712Z,715
2017-06-29T08:02:55.370Z,695
2017-06-29T08:04:10.846Z,785
2017-06-29T08:05:25.003Z,735
2017-06-29T08:06:40.476Z,825
2017-06-29T08:07:56.176Z,795
2017-06-29T08:09:11.819Z,780
2017-06-29T08:10:27.291Z,805
2017-06-29T08:11:42.934Z,790
2017-06-29T08:12:58.650Z,795
2017-06-29T08:14:14.087Z,795
2017-06-29T08:15:29.734Z,785
2017-06-29T08:16:45.388Z,775
2017-06-29T08:18:14.686Z,790
2017-06-29T08:19:29.793Z,780
2017-06-29T08:20:45.439Z,795
2017-06-29T08:22:00.895Z,830
2017-06-29T08:23:14.901Z,890
2017-06-29T08:24:42.866Z,910
2017-06-29T08:25:57.987Z,895
2017-06-29T08:27:13.453Z,845
2017-06-29T08:28:29.159Z,905
2017-06-29T08:29:44.606Z,900
2017-06-29T08:31:00.074Z,930
2017-06-29T08:32:14.241Z,920
2017-06-29T08:33:29.910Z,875
2017-06-29T08:34:45.392Z,865
2017-06-29T08:36:00.790Z,910
2017-06-29T08:37:16.241Z,820
2017-06-29T08:38:31.916Z,840
2017-06-29T08:39:47.378Z,870
2017-06-29T08:41:02.881Z,860
2017-06-29T08:42:17.135Z,880
2017-06-29T08:43:32.928Z,885
2017-06-29T08:44:48.414Z,895
2017-06-29T08:46:03.833Z,905
2017-06-29T08:47:19.316Z,980
2017-06-29T08:48:35.014Z,1025
2017-06-29T08:49:47.860Z,1030
2017-06-29T08:51:03.312Z,980
2017-06-29T08:52:18.807Z,1015
2017-06-29T08:53:34.518Z,1000
2017-06-29T08:54:48.646Z,970
2017-06-29T08:56:04.159Z,930
2017-06-29T08:57:19.748Z,905
2017-06-29T08:58:35.434Z,890
2017-06-29T08:59:50.856Z,890
2017-06-29T09:01:06.318Z,840
2017-06-29T09:02:21.784Z,900
2017-06-29T09:03:37.648Z,875
2017-06-29T09:04:53.107Z,980
2017-06-29T09:06:08.594Z,965
2017-06-29T09:07:24.043Z,765
2017-06-29T09:08:39.986Z,800
2017-06-29T09:09:55.537Z,660
2017-06-29T09:11:10.609Z,720
2017-06-29T09:12:24.788Z,635
2017-06-29T09:13:40.513Z,680
2017-06-29T09:15:09.533Z,760
2017-06-29T09:16:25.049Z,780
2017-06-29T09:17:40.694Z,1095
2017-06-29T09:18:56.620Z,1140
2017-06-29T09:20:12.045Z,1205
2017-06-29T09:21:27.439Z,1265
2017-06-29T09:22:41.636Z,1305
2017-06-29T09:23:57.341Z,1405
2017-06-29T09:25:12.798Z,1390
2017-06-29T09:26:28.291Z,1350
2017-06-29T09:27:43.677Z,1335
2017-06-29T09:28:59.619Z,1315
2017-06-29T09:30:14.686Z,1135
2017-06-29T09:31:30.147Z,890
2017-06-29T09:32:45.609Z,1225
2017-06-29T09:34:01.272Z,1160
2017-06-29T09:35:16.707Z,1135
2017-06-29T09:36:30.870Z,1060
2017-06-29T09:37:46.342Z,1010
2017-06-29T09:39:01.970Z,935
2017-06-29T09:40:17.475Z,885
2017-06-29T09:41:32.899Z,965
2017-06-29T09:42:47.019Z,910
2017-06-29T09:44:02.697Z,825
2017-06-29T09:45:18.250Z,760
2017-06-29T09:46:33.734Z,735
2017-06-29T09:47:49.161Z,765
2017-06-29T09:49:04.525Z,780
2017-06-29T09:50:19.963Z,825
2017-06-29T09:51:35.382Z,825
2017-06-29T09:52:49.545Z,810
2017-06-29T09:54:05.444Z,795
2017-06-29T09:55:21.024Z,780
2017-06-29T09:56:36.509Z,705
2017-06-29T09:57:50.687Z,670
2017-06-29T09:59:05.079Z,635
2017-06-29T10:00:20.551Z,650
2017-06-29T10:01:35.980Z,685
2017-06-29T10:02:51.506Z,690
2017-06-29T10:04:07.227Z,670
2017-06-29T10:05:22.648Z,640
2017-06-29T10:06:38.122Z,725
2017-06-29T10:07:53.505Z,885
2017-06-29T10:09:08.191Z,975
2017-06-29T10:10:22.352Z,970
2017-06-29T10:11:37.808Z,910
2017-06-29T10:12:53.256Z,790
2017-06-29T10:14:09.016Z,815
2017-06-29T10:15:24.410Z,940
2017-06-29T10:16:39.898Z,1020
2017-06-29T10:17:55.335Z,1045
2017-06-29T10:19:11.086Z,1075
2017-06-29T10:20:26.558Z,1060
2017-06-29T10:23:09.873Z,1005
2017-06-29T10:24:25.563Z,1025
2017-06-29T10:25:41.084Z,1040
2017-06-29T10:26:56.595Z,1070
2017-06-29T10:28:12.214Z,1165
2017-06-29T10:29:27.892Z,1155
2017-06-29T10:30:40.752Z,1130
2017-06-29T10:31:56.167Z,1135
2017-06-29T10:33:11.613Z,1105
2017-06-29T10:34:27.307Z,1075
2017-06-29T10:35:42.411Z,1045
2017-06-29T10:36:57.803Z,1010
2017-06-29T10:38:13.271Z,980
2017-06-29T10:39:28.932Z,960
2017-06-29T10:40:42.942Z,930
2017-06-29T10:41:58.357Z,905
2017-06-29T10:43:13.827Z,915
2017-06-29T10:44:29.520Z,905
2017-06-29T10:45:44.964Z,895
2017-06-29T10:47:00.077Z,900
2017-06-29T10:48:15.545Z,905
2017-06-29T10:49:31.248Z,910
2017-06-29T10:50:44.065Z,925
2017-06-29T10:51:59.574Z,905
2017-06-29T10:53:15.100Z,870
2017-06-29T10:54:30.779Z,850
2017-06-29T10:55:46.234Z,820
2017-06-29T10:57:01.647Z,800
2017-06-29T10:58:15.793Z,780
2017-06-29T10:59:31.618Z,770
2017-06-29T11:00:47.055Z,760
2017-06-29T11:02:02.475Z,755
2017-06-29T11:03:16.638Z,760
2017-06-29T11:04:32.339Z,775
2017-06-29T11:05:47.796Z,800
2017-06-29T11:07:02.947Z,825
2017-06-29T11:08:17.090Z,845
2017-06-29T11:09:32.810Z,875
2017-06-29T11:10:48.069Z,910
2017-06-29T11:12:03.548Z,910
2017-06-29T11:13:17.664Z,930
2017-06-29T11:14:31.929Z,965
2017-06-29T11:15:46.081Z,1035
2017-06-29T11:17:15.012Z,1125
2017-06-29T11:18:30.502Z,1125
2017-06-29T11:19:46.177Z,1065
2017-06-29T11:21:01.640Z,975
2017-06-29T11:22:17.154Z,950
2017-06-29T11:23:32.656Z,950
2017-06-29T11:24:48.346Z,965
2017-06-29T11:26:03.796Z,1010
2017-06-29T11:27:18.937Z,1115
2017-06-29T11:28:34.473Z,1160
2017-06-29T11:29:50.142Z,1120
2017-06-29T11:31:05.579Z,1035
2017-06-29T11:32:21.087Z,980
2017-06-29T11:33:36.508Z,950
2017-06-29T11:34:52.131Z,935
2017-06-29T11:36:07.590Z,920
2017-06-29T11:37:23.026Z,930
2017-06-29T11:38:38.511Z,955
2017-06-29T11:39:52.900Z,995
2017-06-29T11:41:06.915Z,1080
2017-06-29T11:42:22.491Z,1015
2017-06-29T11:43:37.989Z,950
2017-06-29T11:44:53.674Z,970
2017-06-29T11:46:07.690Z,935
2017-06-29T11:47:21.889Z,910
2017-06-29T11:48:37.598Z,870
2017-06-29T11:49:53.397Z,855
2017-06-29T11:51:08.842Z,835
2017-06-29T11:52:24.250Z,825
2017-06-29T11:53:39.849Z,835
2017-06-29T11:54:55.492Z,805
2017-06-29T11:56:10.901Z,785
2017-06-29T11:57:57.052Z,755
2017-06-29T11:59:12.512Z,740
2017-06-29T12:00:26.952Z,745
2017-06-29T12:01:42.581Z,770
2017-06-29T12:02:58.205Z,825
2017-06-29T12:04:13.780Z,890
2017-06-29T12:05:29.595Z,910
2017-06-29T12:06:45.003Z,895
2017-06-29T12:08:00.405Z,885
2017-06-29T12:09:15.874Z,890
2017-06-29T12:10:31.589Z,925
2017-06-29T12:11:47.032Z,935
2017-06-29T12:13:02.487Z,970
2017-06-29T12:14:17.919Z,975
2017-06-29T12:15:33.621Z,995
2017-06-29T12:16:49.281Z,1075
2017-06-29T12:18:04.761Z,1100
2017-06-29T12:19:20.301Z,1125
2017-06-29T12:20:35.593Z,1110
2017-06-29T12:21:49.624Z,1070
2017-06-29T12:23:05.090Z,960
2017-06-29T12:24:19.315Z,935
2017-06-29T12:25:33.759Z,945
2017-06-29T12:26:49.326Z,830
2017-06-29T12:28:04.817Z,735
2017-06-29T12:29:20.230Z,665
2017-06-29T12:30:36.021Z,645
2017-06-29T12:31:51.439Z,605
2017-06-29T12:33:06.880Z,575
2017-06-29T12:34:22.355Z,560
2017-06-29T12:35:38.300Z,535
2017-06-29T12:36:52.434Z,530
2017-06-29T12:38:07.559Z,525
2017-06-29T12:39:22.858Z,520
2017-06-29T12:40:38.598Z,500
2017-06-29T12:41:54.016Z,490
2017-06-29T12:43:09.700Z,480
2017-06-29T12:44:25.121Z,460
2017-06-29T12:45:40.826Z,435
2017-06-29T12:46:56.534Z,420
2017-06-29T12:48:11.974Z,395
2017-06-29T12:49:27.100Z,375
2017-06-29T12:50:42.840Z,355
2017-06-29T12:51:58.310Z,335
2017-06-29T12:53:13.783Z,310
2017-06-29T12:54:29.237Z,295
2017-06-29T12:55:44.944Z,280
2017-06-29T12:56:58.801Z,270
2017-06-29T12:58:12.911Z,260
2017-06-29T12:59:59.202Z,250
2017-06-29T13:01:45.775Z,240
2017-06-29T13:03:01.276Z,235
2017-06-29T13:04:16.741Z,225
2017-06-29T13:05:32.192Z,220
2017-06-29T13:06:48.118Z,215
2017-06-29T13:08:03.543Z,210
2017-06-29T13:09:19.002Z,210
2017-06-29T13:10:34.117Z,205
2017-06-29T13:11:48.451Z,205
2017-06-29T13:13:03.922Z,205
2017-06-29T13:14:19.405Z,205
2017-06-29T13:15:35.094Z,205
2017-06-29T13:16:50.835Z,205
2017-06-29T13:18:06.262Z,205
2017-06-29T13:19:21.746Z,210
2017-06-29T13:20:37.218Z,210
2017-06-29T13:21:52.971Z,210
2017-06-29T13:23:08.423Z,215
2017-06-29T13:24:23.870Z,220
2017-06-29T13:25:37.957Z,225
2017-06-29T13:26:53.673Z,230
2017-06-29T13:28:09.176Z,235
2017-06-29T13:29:24.664Z,240
2017-06-29T13:30:40.121Z,235
2017-06-29T13:31:56.023Z,235
2017-06-29T13:33:11.458Z,230
2017-06-29T13:34:26.865Z,230
2017-06-29T13:35:41.012Z,225
2017-06-29T13:36:56.846Z,220
2017-06-29T13:38:12.503Z,215
2017-06-29T13:39:28.184Z,215
2017-06-29T13:40:43.678Z,210
2017-06-29T13:41:59.365Z,205
2017-06-29T13:43:14.913Z,205
2017-06-29T13:44:30.404Z,205
2017-06-29T13:45:45.883Z,205
2017-06-29T13:47:01.670Z,195
2017-06-29T13:48:15.802Z,195
2017-06-29T13:49:31.257Z,195
2017-06-29T13:50:46.762Z,195
2017-06-29T13:52:02.517Z,195
2017-06-29T13:53:18.157Z,195
2017-06-29T13:54:33.639Z,195
2017-06-29T13:55:49.089Z,195
2017-06-29T13:57:04.756Z,195
2017-06-29T13:58:20.230Z,190
2017-06-29T13:59:35.697Z,190
2017-06-29T14:00:51.299Z,195
2017-06-29T14:02:05.759Z,195
2017-06-29T14:03:21.234Z,195
2017-06-29T14:04:36.736Z,200
2017-06-29T14:05:52.160Z,200
2017-06-29T14:07:07.862Z,200
2017-06-29T14:08:23.310Z,205
2017-06-29T14:09:38.739Z,205
2017-06-29T14:10:54.461Z,210
2017-06-29T14:12:10.122Z,215
2017-06-29T14:13:22.983Z,220
2017-06-29T14:14:38.430Z,225
2017-06-29T14:15:53.516Z,235
2017-06-29T14:17:09.260Z,240
2017-06-29T14:18:23.415Z,240
2017-06-29T14:19:38.915Z,245
2017-06-29T14:20:54.391Z,245
2017-06-29T14:22:10.161Z,240
2017-06-29T14:23:25.613Z,240
2017-06-29T14:24:41.054Z,235
2017-06-29T14:25:55.208Z,230
2017-06-29T14:27:10.962Z,225
2017-06-29T14:28:26.433Z,225
2017-06-29T14:29:41.882Z,220
2017-06-29T14:30:57.372Z,215
2017-06-29T14:32:13.065Z,215
2017-06-29T14:33:28.536Z,215
2017-06-29T14:34:42.742Z,215
2017-06-29T14:35:58.335Z,215
2017-06-29T14:37:13.744Z,215
2017-06-29T14:38:29.391Z,215
2017-06-29T14:39:44.880Z,215
2017-06-29T14:40:59.193Z,220
2017-06-29T14:42:14.834Z,220
2017-06-29T14:43:30.264Z,225
2017-06-29T14:44:45.760Z,230
2017-06-29T14:46:01.240Z,235
2017-06-29T14:47:17.127Z,240
2017-06-29T14:48:32.692Z,240
2017-06-29T14:49:48.211Z,245
2017-06-29T14:51:03.733Z,250
2017-06-29T14:52:18.146Z,255
2017-06-29T14:53:33.558Z,255
2017-06-29T14:54:49.073Z,265
2017-06-29T14:56:04.507Z,260
2017-06-29T14:57:18.968Z,260
2017-06-29T14:58:34.428Z,255
2017-06-29T14:59:49.824Z,255
2017-06-29T15:01:04.020Z,255
2017-06-29T15:02:19.739Z,250
2017-06-29T15:03:35.153Z,255
2017-06-29T15:04:50.631Z,245
2017-06-29T15:06:06.118Z,245
2017-06-29T15:07:21.893Z,245
2017-06-29T15:08:37.353Z,245
2017-06-29T15:09:52.795Z,250
2017-06-29T15:11:08.289Z,255
2017-06-29T15:12:24.013Z,260
2017-06-29T15:13:39.435Z,265
2017-06-29T15:14:55.112Z,270
2017-06-29T15:16:10.644Z,280
2017-06-29T15:17:26.533Z,285
2017-06-29T15:18:39.362Z,295
2017-06-29T15:19:55.076Z,300
2017-06-29T15:21:24.119Z,300
2017-06-29T15:22:39.856Z,265
2017-06-29T15:23:55.306Z,205
2017-06-29T15:25:09.473Z,145
2017-06-29T15:26:25.104Z,175
2017-06-29T15:27:40.837Z,230
2017-06-29T15:28:56.298Z,285
2017-06-29T15:30:11.973Z,285
2017-06-29T15:31:27.110Z,300
2017-06-29T15:32:42.856Z,310
2017-06-29T15:33:58.338Z,305
2017-06-29T15:35:13.921Z,300
2017-06-29T15:36:29.393Z,300
2017-06-29T15:37:43.867Z,300
2017-06-29T15:38:59.318Z,305
2017-06-29T15:40:12.184Z,305
2017-06-29T15:41:27.650Z,305
2017-06-29T15:42:43.359Z,305
2017-06-29T15:43:58.821Z,305
2017-06-29T15:45:14.047Z,310
2017-06-29T15:46:29.502Z,305
2017-06-29T15:47:45.243Z,300
2017-06-29T15:49:00.875Z,300
2017-06-29T15:50:16.514Z,280
2017-06-29T15:51:30.668Z,310
2017-06-29T15:52:46.466Z,315
2017-06-29T15:54:02.171Z,310
2017-06-29T15:55:17.674Z,305
2017-06-29T15:56:33.117Z,305
2017-06-29T15:57:48.947Z,315
2017-06-29T15:59:04.415Z,310
2017-06-29T16:00:18.511Z,290
2017-06-29T16:01:34.010Z,280
2017-06-29T16:02:49.722Z,280
2017-06-29T16:04:05.201Z,285
2017-06-29T16:05:20.645Z,280
2017-06-29T16:06:36.274Z,275
2017-06-29T16:07:52.042Z,270
2017-06-29T16:09:07.672Z,270
2017-06-29T16:10:23.170Z,270
2017-06-29T16:11:38.299Z,265
2017-06-29T16:12:53.631Z,265
2017-06-29T16:14:09.034Z,265
2017-06-29T16:15:24.487Z,260
2017-06-29T16:16:39.989Z,255
2017-06-29T16:17:54.340Z,250
2017-06-29T16:19:09.849Z,250
2017-06-29T16:20:25.459Z,245
2017-06-29T16:21:39.619Z,240
2017-06-29T16:22:55.318Z,240
2017-06-29T16:24:09.486Z,235
2017-06-29T16:25:24.940Z,230
2017-06-29T16:26:40.699Z,225
2017-06-29T16:27:56.459Z,220
2017-06-29T16:29:11.934Z,215
2017-06-29T16:30:27.446Z,205
2017-06-29T16:31:42.916Z,200
2017-06-29T16:32:59.081Z,200
2017-06-29T16:34:28.289Z,195
2017-06-29T16:35:43.803Z,195
2017-06-29T16:36:59.247Z,195
2017-06-29T16:38:15.010Z,195
2017-06-29T16:39:30.668Z,190
2017-06-29T16:40:46.125Z,185
2017-06-29T16:42:01.621Z,180
2017-06-29T16:43:17.603Z,175
2017-06-29T16:44:33.325Z,165
2017-06-29T16:45:48.773Z,160
2017-06-29T16:47:04.584Z,145
2017-06-29T16:48:20.599Z,135
2017-06-29T16:49:36.099Z,130
2017-06-29T16:50:51.545Z,125
2017-06-29T16:52:05.581Z,125
2017-06-29T16:53:21.501Z,130
2017-06-29T16:54:37.135Z,125
2017-06-29T16:55:52.605Z,120
2017-06-29T16:57:08.189Z,120
2017-06-29T16:58:24.088Z,115
2017-06-29T16:59:39.581Z,115
2017-06-29T17:00:53.549Z,110
2017-06-29T17:02:09.128Z,110
2017-06-29T17:03:24.864Z,105
2017-06-29T17:04:40.345Z,105
2017-06-29T17:05:55.846Z,105
2017-06-29T17:07:11.350Z,100
2017-06-29T17:08:27.156Z,95
2017-06-29T17:09:42.738Z,95
2017-06-29T17:10:58.247Z,95
2017-06-29T17:12:13.820Z,90
2017-06-29T17:13:29.566Z,90
2017-06-29T17:14:45.108Z,90
2017-06-29T17:16:00.618Z,90
2017-06-29T17:17:14.838Z,90
2017-06-29T17:18:30.591Z,90
2017-06-29T17:19:46.381Z,90
2017-06-29T17:21:01.838Z,90
2017-06-29T17:22:17.299Z,90
2017-06-29T17:23:33.104Z,85
2017-06-29T17:24:48.599Z,85
2017-06-29T17:26:04.294Z,85
2017-06-29T17:27:19.866Z,80
2017-06-29T17:28:35.314Z,75
2017-06-29T17:29:50.967Z,75
2017-06-29T17:31:05.179Z,75
2017-06-29T17:32:20.710Z,75
2017-06-29T17:33:36.362Z,75
2017-06-29T17:34:50.641Z,75
2017-06-29T17:36:06.116Z,75
2017-06-29T17:37:21.648Z,75